Lindy Lake, New Jersey
Current Conditions -  °F | °C
As of 1:15 PM on Wednesday 26 Nov 2014 (Local Time) from KCDW Reporting Station
Light Snow Light Snow  
Wind Chill: 26°   Ceiling: 400
Heat Index: 32°   Visibility: 0.75mi
Dew Point: 30°   Wind: 6mph
Humidity: 92%   Direction: 60°ENE
Pressure: 29.99"   Gusts: NA
Location:  40.9863°N, 74.383°W
Report Text: KCDW 261815Z 06005KT 3/4SM -SN BR OVC004 00/M01 A2999 RMK AO2 PRESFR P0006 T00001011
Loading
Personal Weather Stations






























Interactive Weather Map New forecast layout! Learn more

10-Day Weather Forecast

Advertisements
Track Severe Weather on mobile